sensor_id;sensor_type;location;lat;lon;timestamp;pressure;altitude;pressure_sealevel;temperature;humidity
68137;BME280;54939;50.826;9.030;2022-09-21T00:00:05;99534.59;;;15.62;52.97
68137;BME280;54939;50.826;9.030;2022-09-21T00:00:35;99540.78;;;15.63;52.52
68137;BME280;54939;50.826;9.030;2022-09-21T00:01:27;99541.63;;;15.63;52.89
68137;BME280;54939;50.826;9.030;2022-09-21T00:01:56;99539.78;;;15.64;53.01
68137;BME280;54939;50.826;9.030;2022-09-21T00:02:27;99539.78;;;15.64;52.95
68137;BME280;54939;50.826;9.030;2022-09-21T00:02:57;99539.78;;;15.64;52.94
68137;BME280;54939;50.826;9.030;2022-09-21T00:03:27;99545.19;;;15.64;52.93
68137;BME280;54939;50.826;9.030;2022-09-21T00:03:59;99538.94;;;15.63;53.00
68137;BME280;54939;50.826;9.030;2022-09-21T00:04:29;99540.63;;;15.64;52.86
68137;BME280;54939;50.826;9.030;2022-09-21T00:04:59;99541.47;;;15.65;52.99
68137;BME280;54939;50.826;9.030;2022-09-21T00:05:30;99545.19;;;15.64;52.93
68137;BME280;54939;50.826;9.030;2022-09-21T00:06:07;99546.03;;;15.64;53.03
68137;BME280;54939;50.826;9.030;2022-09-21T00:06:37;99542.47;;;15.64;52.87
68137;BME280;54939;50.826;9.030;2022-09-21T00:07:07;99538.94;;;15.63;52.85
68137;BME280;54939;50.826;9.030;2022-09-21T00:07:38;99538.94;;;15.63;53.07
68137;BME280;54939;50.826;9.030;2022-09-21T00:08:09;99537.28;;;15.62;52.95
68137;BME280;54939;50.826;9.030;2022-09-21T00:08:40;99538.94;;;15.63;52.84
68137;BME280;54939;50.826;9.030;2022-09-21T00:09:10;99537.28;;;15.62;52.96
68137;BME280;54939;50.826;9.030;2022-09-21T00:09:40;99541.63;;;15.63;52.99
68137;BME280;54939;50.826;9.030;2022-09-21T00:10:11;99539.97;;;15.62;52.94
68137;BME280;54939;50.826;9.030;2022-09-21T00:10:41;99542.69;;;15.62;53.06
68137;BME280;54939;50.826;9.030;2022-09-21T00:11:12;99541.84;;;15.62;53.04
68137;BME280;54939;50.826;9.030;2022-09-21T00:11:43;99537.28;;;15.62;52.95
68137;BME280;54939;50.826;9.030;2022-09-21T00:12:13;99539.97;;;15.62;52.99
68137;BME280;54939;50.826;9.030;2022-09-21T00:12:43;99543.50;;;15.63;52.87
68137;BME280;54939;50.826;9.030;2022-09-21T00:13:16;99541.63;;;15.63;52.84
68137;BME280;54939;50.826;9.030;2022-09-21T00:13:50;99541.63;;;15.63;52.83
68137;BME280;54939;50.826;9.030;2022-09-21T00:14:21;99536.25;;;15.63;52.81
68137;BME280;54939;50.826;9.030;2022-09-21T00:14:51;99548.06;;;15.62;52.87
68137;BME280;54939;50.826;9.030;2022-09-21T00:15:21;99542.47;;;15.64;52.92
68137;BME280;54939;50.826;9.030;2022-09-21T00:15:51;99541.63;;;15.63;52.83
68137;BME280;54939;50.826;9.030;2022-09-21T00:16:22;99542.69;;;15.62;52.97
68137;BME280;54939;50.826;9.030;2022-09-21T00:16:52;99539.97;;;15.62;52.81
68137;BME280;54939;50.826;9.030;2022-09-21T00:17:23;99539.97;;;15.62;53.00
68137;BME280;54939;50.826;9.030;2022-09-21T00:17:53;99538.94;;;15.63;52.91
68137;BME280;54939;50.826;9.030;2022-09-21T00:18:24;99545.19;;;15.64;53.04
68137;BME280;54939;50.826;9.030;2022-09-21T00:18:54;99543.50;;;15.63;52.85
68137;BME280;54939;50.826;9.030;2022-09-21T00:19:24;99537.28;;;15.62;52.82
68137;BME280;54939;50.826;9.030;2022-09-21T00:19:54;99539.97;;;15.62;52.95
68137;BME280;54939;50.826;9.030;2022-09-21T00:20:25;99542.69;;;15.62;52.98
68137;BME280;54939;50.826;9.030;2022-09-21T00:20:55;99536.44;;;15.62;53.02
68137;BME280;54939;50.826;9.030;2022-09-21T00:21:25;99535.41;;;15.63;52.91
68137;BME280;54939;50.826;9.030;2022-09-21T00:21:57;99539.13;;;15.62;52.99
68137;BME280;54939;50.826;9.030;2022-09-21T00:22:27;99535.41;;;15.63;53.08
68137;BME280;54939;50.826;9.030;2022-09-21T00:22:58;99544.53;;;15.62;52.96
68137;BME280;54939;50.826;9.030;2022-09-21T00:23:28;99539.97;;;15.62;53.02
68137;BME280;54939;50.826;9.030;2022-09-21T00:23:58;99537.28;;;15.62;52.87
68137;BME280;54939;50.826;9.030;2022-09-21T00:24:28;99538.09;;;15.63;53.08
68137;BME280;54939;50.826;9.030;2022-09-21T00:24:59;99543.69;;;15.61;53.01
68137;BME280;54939;50.826;9.030;2022-09-21T00:25:31;99537.28;;;15.62;52.89
68137;BME280;54939;50.826;9.030;2022-09-21T00:26:05;99541.84;;;15.62;53.02
68137;BME280;54939;50.826;9.030;2022-09-21T00:26:36;99534.59;;;15.62;52.91
68137;BME280;54939;50.826;9.030;2022-09-21T00:27:06;99545.38;;;15.62;52.95
68137;BME280;54939;50.826;9.030;2022-09-21T00:27:36;99541.00;;;15.61;52.96
68137;BME280;54939;50.826;9.030;2022-09-21T00:28:06;99539.13;;;15.62;53.03
68137;BME280;54939;50.826;9.030;2022-09-21T00:28:36;99540.13;;;15.61;52.99
68137;BME280;54939;50.826;9.030;2022-09-21T00:29:08;99538.28;;;15.61;53.10
68137;BME280;54939;50.826;9.030;2022-09-21T00:29:39;99536.44;;;15.62;53.09
68137;BME280;54939;50.826;9.030;2022-09-21T00:30:09;99536.25;;;15.63;53.00
68137;BME280;54939;50.826;9.030;2022-09-21T00:30:40;99539.97;;;15.62;52.91
68137;BME280;54939;50.826;9.030;2022-09-21T00:31:11;99535.41;;;15.63;52.86
68137;BME280;54939;50.826;9.030;2022-09-21T00:31:42;99536.44;;;15.62;52.81
68137;BME280;54939;50.826;9.030;2022-09-21T00:32:12;99539.97;;;15.62;52.85
68137;BME280;54939;50.826;9.030;2022-09-21T00:32:42;99536.44;;;15.62;53.04
68137;BME280;54939;50.826;9.030;2022-09-21T00:33:12;99532.91;;;15.61;53.01
68137;BME280;54939;50.826;9.030;2022-09-21T00:33:43;99541.84;;;15.62;52.83
68137;BME280;54939;50.826;9.030;2022-09-21T00:34:13;99535.59;;;15.61;52.98
68137;BME280;54939;50.826;9.030;2022-09-21T00:34:43;99536.25;;;15.63;52.88
68137;BME280;54939;50.826;9.030;2022-09-21T00:35:14;99537.28;;;15.62;52.85
68137;BME280;54939;50.826;9.030;2022-09-21T00:35:44;99540.13;;;15.61;52.88
68137;BME280;54939;50.826;9.030;2022-09-21T00:36:16;99533.56;;;15.63;52.84
68137;BME280;54939;50.826;9.030;2022-09-21T00:36:46;99543.50;;;15.63;52.84
68137;BME280;54939;50.826;9.030;2022-09-21T00:37:17;99534.59;;;15.62;52.97
68137;BME280;54939;50.826;9.030;2022-09-21T00:37:47;99532.91;;;15.61;52.84
68137;BME280;54939;50.826;9.030;2022-09-21T00:39:14;99533.91;;;15.60;52.89
68137;BME280;54939;50.826;9.030;2022-09-21T00:39:45;99535.59;;;15.61;53.03
68137;BME280;54939;50.826;9.030;2022-09-21T00:40:15;99535.41;;;15.63;52.88
68137;BME280;54939;50.826;9.030;2022-09-21T00:40:45;99536.44;;;15.62;52.80
68137;BME280;54939;50.826;9.030;2022-09-21T00:41:15;99534.59;;;15.62;52.92
68137;BME280;54939;50.826;9.030;2022-09-21T00:41:46;99534.59;;;15.62;52.81
68137;BME280;54939;50.826;9.030;2022-09-21T00:42:34;99536.59;;;15.60;53.28
68137;BME280;54939;50.826;9.030;2022-09-21T00:43:14;99539.28;;;15.60;53.04
68137;BME280;54939;50.826;9.030;2022-09-21T00:43:46;99543.84;;;15.60;52.92
68137;BME280;54939;50.826;9.030;2022-09-21T00:44:47;99534.06;;;15.59;52.98
68137;BME280;54939;50.826;9.030;2022-09-21T00:45:17;99539.28;;;15.60;52.71
68137;BME280;54939;50.826;9.030;2022-09-21T00:45:52;99542.00;;;15.60;52.82
68137;BME280;54939;50.826;9.030;2022-09-21T00:46:26;99532.06;;;15.61;52.86
68137;BME280;54939;50.826;9.030;2022-09-21T00:47:00;99535.75;;;15.60;52.98
68137;BME280;54939;50.826;9.030;2022-09-21T00:47:36;99541.16;;;15.60;52.94
68137;BME280;54939;50.826;9.030;2022-09-21T00:48:08;99543.00;;;15.59;53.04
68137;BME280;54939;50.826;9.030;2022-09-21T00:48:38;99535.91;;;15.58;52.94
68137;BME280;54939;50.826;9.030;2022-09-21T00:49:09;99541.16;;;15.60;52.90
68137;BME280;54939;50.826;9.030;2022-09-21T00:49:40;99543.84;;;15.60;52.92
68137;BME280;54939;50.826;9.030;2022-09-21T00:50:13;99549.22;;;15.60;52.96
68137;BME280;54939;50.826;9.030;2022-09-21T00:50:48;99539.47;;;15.59;52.84
68137;BME280;54939;50.826;9.030;2022-09-21T00:51:22;99538.47;;;15.60;52.92
68137;BME280;54939;50.826;9.030;2022-09-21T00:51:53;99540.13;;;15.61;52.79
68137;BME280;54939;50.826;9.030;2022-09-21T00:52:25;99546.38;;;15.61;52.83
68137;BME280;54939;50.826;9.030;2022-09-21T00:52:57;99536.59;;;15.60;52.84
68137;BME280;54939;50.826;9.030;2022-09-21T00:53:28;99545.53;;;15.61;52.81
68137;BME280;54939;50.826;9.030;2022-09-21T00:54:00;99542.00;;;15.60;52.96
68137;BME280;54939;50.826;9.030;2022-09-21T00:54:33;99546.53;;;15.60;52.98
68137;BME280;54939;50.826;9.030;2022-09-21T00:55:15;99542.16;;;15.59;52.86
68137;BME280;54939;50.826;9.030;2022-09-21T00:55:49;99547.53;;;15.59;52.95
68137;BME280;54939;50.826;9.030;2022-09-21T00:56:21;99543.00;;;15.59;52.91
68137;BME280;54939;50.826;9.030;2022-09-21T00:56:51;99546.69;;;15.58;52.87
68137;BME280;54939;50.826;9.030;2022-09-21T00:57:23;99548.38;;;15.59;52.93
68137;BME280;54939;50.826;9.030;2022-09-21T00:57:55;99546.69;;;15.58;52.93
68137;BME280;54939;50.826;9.030;2022-09-21T00:58:28;99541.31;;;15.58;52.93
68137;BME280;54939;50.826;9.030;2022-09-21T00:59:00;99551.06;;;15.59;52.93
68137;BME280;54939;50.826;9.030;2022-09-21T00:59:31;99547.53;;;15.59;52.95
68137;BME280;54939;50.826;9.030;2022-09-21T01:00:04;99550.22;;;15.59;52.84
68137;BME280;54939;50.826;9.030;2022-09-21T01:00:35;99547.38;;;15.60;52.74
68137;BME280;54939;50.826;9.030;2022-09-21T01:01:05;99549.22;;;15.60;52.93
68137;BME280;54939;50.826;9.030;2022-09-21T01:01:36;99552.91;;;15.59;52.89
68137;BME280;54939;50.826;9.030;2022-09-21T01:02:07;99555.59;;;15.59;52.75
68137;BME280;54939;50.826;9.030;2022-09-21T01:02:37;99555.59;;;15.59;52.89
68137;BME280;54939;50.826;9.030;2022-09-21T01:03:08;99555.44;;;15.60;52.91
68137;BME280;54939;50.826;9.030;2022-09-21T01:03:40;99553.75;;;15.59;52.87
68137;BME280;54939;50.826;9.030;2022-09-21T01:04:14;99552.91;;;15.59;52.88
68137;BME280;54939;50.826;9.030;2022-09-21T01:04:47;99557.28;;;15.60;52.92
68137;BME280;54939;50.826;9.030;2022-09-21T01:05:17;99559.13;;;15.59;52.96
68137;BME280;54939;50.826;9.030;2022-09-21T01:05:48;99559.13;;;15.59;52.81
68137;BME280;54939;50.826;9.030;2022-09-21T01:06:18;99556.44;;;15.59;52.93
68137;BME280;54939;50.826;9.030;2022-09-21T01:06:49;99560.84;;;15.60;52.78
68137;BME280;54939;50.826;9.030;2022-09-21T01:07:24;99556.44;;;15.59;52.98
68137;BME280;54939;50.826;9.030;2022-09-21T01:07:57;99556.44;;;15.59;52.84
68137;BME280;54939;50.826;9.030;2022-09-21T01:08:29;99558.47;;;15.57;52.83
68137;BME280;54939;50.826;9.030;2022-09-21T01:09:00;99555.59;;;15.59;52.82
68137;BME280;54939;50.826;9.030;2022-09-21T01:09:30;99558.47;;;15.57;52.81
68137;BME280;54939;50.826;9.030;2022-09-21T01:10:02;99562.00;;;15.58;53.12
68137;BME280;54939;50.826;9.030;2022-09-21T01:11:47;99561.16;;;15.57;52.91
68137;BME280;54939;50.826;9.030;2022-09-21T01:14:14;99559.47;;;15.56;52.97
68137;BME280;54939;50.826;9.030;2022-09-21T01:16:11;99558.47;;;15.57;52.87
68137;BME280;54939;50.826;9.030;2022-09-21T01:16:47;99561.16;;;15.57;52.79
68137;BME280;54939;50.826;9.030;2022-09-21T01:18:08;99563.84;;;15.57;52.94
68137;BME280;54939;50.826;9.030;2022-09-21T01:18:45;99564.84;;;15.56;52.89
68137;BME280;54939;50.826;9.030;2022-09-21T01:21:19;99562.00;;;15.58;52.84
68137;BME280;54939;50.826;9.030;2022-09-21T01:21:53;99568.22;;;15.58;52.76
68137;BME280;54939;50.826;9.030;2022-09-21T01:23:10;99564.69;;;15.58;52.82
68137;BME280;54939;50.826;9.030;2022-09-21T01:27:30;99564.03;;;15.56;52.83
68137;BME280;54939;50.826;9.030;2022-09-21T01:29:29;99558.47;;;15.57;52.90
68137;BME280;54939;50.826;9.030;2022-09-21T01:30:32;99563.84;;;15.57;52.69
68137;BME280;54939;50.826;9.030;2022-09-21T01:31:04;99565.53;;;15.58;52.69
68137;BME280;54939;50.826;9.030;2022-09-21T01:31:48;99562.00;;;15.58;52.88
68137;BME280;54939;50.826;9.030;2022-09-21T01:33:11;99558.47;;;15.57;52.88
68137;BME280;54939;50.826;9.030;2022-09-21T01:33:45;99568.22;;;15.58;52.85
68137;BME280;54939;50.826;9.030;2022-09-21T01:35:37;99573.75;;;15.57;52.78
68137;BME280;54939;50.826;9.030;2022-09-21T01:36:11;99566.72;;;15.56;52.75
68137;BME280;54939;50.826;9.030;2022-09-21T01:36:42;99573.75;;;15.57;52.77
68137;BME280;54939;50.826;9.030;2022-09-21T01:37:20;99570.41;;;15.55;52.80
68137;BME280;54939;50.826;9.030;2022-09-21T01:37:54;99568.56;;;15.55;52.88
68137;BME280;54939;50.826;9.030;2022-09-21T01:38:28;99563.34;;;15.54;52.82
68137;BME280;54939;50.826;9.030;2022-09-21T01:39:02;99569.41;;;15.56;52.86
68137;BME280;54939;50.826;9.030;2022-09-21T01:39:34;99565.69;;;15.57;52.79
68137;BME280;54939;50.826;9.030;2022-09-21T01:40:11;99573.09;;;15.55;52.91
68137;BME280;54939;50.826;9.030;2022-09-21T01:40:46;99567.53;;;15.56;52.75
68137;BME280;54939;50.826;9.030;2022-09-21T01:41:20;99571.06;;;15.57;52.79
68137;BME280;54939;50.826;9.030;2022-09-21T01:41:51;99572.09;;;15.56;52.82
68137;BME280;54939;50.826;9.030;2022-09-21T01:42:24;99571.25;;;15.55;52.99
68137;BME280;54939;50.826;9.030;2022-09-21T01:42:55;99574.78;;;15.56;52.76
68137;BME280;54939;50.826;9.030;2022-09-21T01:43:30;99573.94;;;15.55;52.78
68137;BME280;54939;50.826;9.030;2022-09-21T01:44:03;99570.41;;;15.55;52.92
68137;BME280;54939;50.826;9.030;2022-09-21T01:44:37;99572.91;;;15.56;52.85
68137;BME280;54939;50.826;9.030;2022-09-21T01:45:09;99564.19;;;15.54;52.69
68137;BME280;54939;50.826;9.030;2022-09-21T01:45:43;99569.56;;;15.54;52.76
68137;BME280;54939;50.826;9.030;2022-09-21T01:46:15;99573.94;;;15.55;52.81
68137;BME280;54939;50.826;9.030;2022-09-21T01:46:47;99568.56;;;15.55;52.79
68137;BME280;54939;50.826;9.030;2022-09-21T01:47:18;99561.16;;;15.57;52.74
68137;BME280;54939;50.826;9.030;2022-09-21T01:47:48;99574.78;;;15.56;52.76
68137;BME280;54939;50.826;9.030;2022-09-21T01:48:20;99568.56;;;15.55;52.83
68137;BME280;54939;50.826;9.030;2022-09-21T01:48:52;99573.09;;;15.55;52.84
68137;BME280;54939;50.826;9.030;2022-09-21T01:49:29;99569.56;;;15.54;52.79
68137;BME280;54939;50.826;9.030;2022-09-21T01:50:00;99567.72;;;15.55;52.73
68137;BME280;54939;50.826;9.030;2022-09-21T01:50:34;99563.34;;;15.54;52.79
68137;BME280;54939;50.826;9.030;2022-09-21T01:51:06;99573.09;;;15.55;52.82
68137;BME280;54939;50.826;9.030;2022-09-21T01:51:42;99568.56;;;15.55;52.87
68137;BME280;54939;50.826;9.030;2022-09-21T01:52:20;99567.53;;;15.56;52.60
68137;BME280;54939;50.826;9.030;2022-09-21T01:52:53;99565.69;;;15.57;52.44
68137;BME280;54939;50.826;9.030;2022-09-21T01:53:30;99560.50;;;15.55;52.50
68137;BME280;54939;50.826;9.030;2022-09-21T01:54:03;99570.41;;;15.55;52.27
68137;BME280;54939;50.826;9.030;2022-09-21T01:54:41;99571.41;;;15.54;52.46
68137;BME280;54939;50.826;9.030;2022-09-21T01:55:22;99563.34;;;15.54;52.60
68137;BME280;54939;50.826;9.030;2022-09-21T01:55:58;99566.03;;;15.54;52.56
68137;BME280;54939;50.826;9.030;2022-09-21T01:56:32;99566.16;;;15.52;52.54
68137;BME280;54939;50.826;9.030;2022-09-21T01:57:06;99562.50;;;15.53;52.76
68137;BME280;54939;50.826;9.030;2022-09-21T01:58:29;99564.34;;;15.53;52.80
68137;BME280;54939;50.826;9.030;2022-09-21T01:59:54;99567.03;;;15.53;52.60
68137;BME280;54939;50.826;9.030;2022-09-21T02:00:25;99571.25;;;15.55;52.67
68137;BME280;54939;50.826;9.030;2022-09-21T02:00:56;99567.72;;;15.55;52.62
68137;BME280;54939;50.826;9.030;2022-09-21T02:01:27;99570.41;;;15.55;52.33
68137;BME280;54939;50.826;9.030;2022-09-21T02:01:59;99566.88;;;15.54;52.34
68137;BME280;54939;50.826;9.030;2022-09-21T02:03:09;99566.88;;;15.54;52.43
68137;BME280;54939;50.826;9.030;2022-09-21T02:03:42;99572.41;;;15.53;52.54
68137;BME280;54939;50.826;9.030;2022-09-21T02:04:13;99563.34;;;15.54;52.34
68137;BME280;54939;50.826;9.030;2022-09-21T02:04:44;99567.88;;;15.53;52.57
68137;BME280;54939;50.826;9.030;2022-09-21T02:05:14;99569.72;;;15.53;52.46
68137;BME280;54939;50.826;9.030;2022-09-21T02:05:46;99564.34;;;15.53;52.27
68137;BME280;54939;50.826;9.030;2022-09-21T02:06:16;99565.31;;;15.52;52.50
68137;BME280;54939;50.826;9.030;2022-09-21T02:06:47;99570.41;;;15.55;52.35
68137;BME280;54939;50.826;9.030;2022-09-21T02:07:17;99567.03;;;15.53;52.53
68137;BME280;54939;50.826;9.030;2022-09-21T02:07:49;99566.16;;;15.52;52.38
68137;BME280;54939;50.826;9.030;2022-09-21T02:08:20;99573.38;;;15.52;52.40
68137;BME280;54939;50.826;9.030;2022-09-21T02:08:50;99567.16;;;15.51;52.50
68137;BME280;54939;50.826;9.030;2022-09-21T02:09:20;99568.00;;;15.52;52.48
68137;BME280;54939;50.826;9.030;2022-09-21T02:09:52;99566.31;;;15.51;52.39
68137;BME280;54939;50.826;9.030;2022-09-21T02:10:35;99561.94;;;15.50;52.51
68137;BME280;54939;50.826;9.030;2022-09-21T02:11:06;99562.97;;;15.49;52.49
68137;BME280;54939;50.826;9.030;2022-09-21T02:11:36;99571.03;;;15.49;52.58
68137;BME280;54939;50.826;9.030;2022-09-21T02:12:07;99562.78;;;15.50;52.59
68137;BME280;54939;50.826;9.030;2022-09-21T02:12:38;99569.00;;;15.51;52.54
68137;BME280;54939;50.826;9.030;2022-09-21T02:13:09;99567.31;;;15.50;52.44
68137;BME280;54939;50.826;9.030;2022-09-21T02:13:41;99570.84;;;15.50;52.48
68137;BME280;54939;50.826;9.030;2022-09-21T02:14:19;99567.31;;;15.50;52.68
68137;BME280;54939;50.826;9.030;2022-09-21T02:14:51;99571.69;;;15.51;52.53
68137;BME280;54939;50.826;9.030;2022-09-21T02:15:25;99572.69;;;15.50;52.26
68137;BME280;54939;50.826;9.030;2022-09-21T02:16:47;99568.34;;;15.49;52.33
68137;BME280;54939;50.826;9.030;2022-09-21T02:17:59;99563.13;;;15.47;52.14
68137;BME280;54939;50.826;9.030;2022-09-21T02:18:49;99566.66;;;15.48;52.76
68137;BME280;54939;50.826;9.030;2022-09-21T02:20:19;99568.34;;;15.49;52.26
68137;BME280;54939;50.826;9.030;2022-09-21T02:20:55;99564.81;;;15.48;52.54
68137;BME280;54939;50.826;9.030;2022-09-21T02:21:29;99566.47;;;15.49;52.42
68137;BME280;54939;50.826;9.030;2022-09-21T02:22:01;99563.13;;;15.47;52.41
68137;BME280;54939;50.826;9.030;2022-09-21T02:24:02;99564.13;;;15.46;52.35
68137;BME280;54939;50.826;9.030;2022-09-21T02:24:37;99562.78;;;15.50;52.49
68137;BME280;54939;50.826;9.030;2022-09-21T02:25:11;99566.47;;;15.49;52.18
68137;BME280;54939;50.826;9.030;2022-09-21T02:26:00;99557.59;;;15.49;52.18
68137;BME280;54939;50.826;9.030;2022-09-21T02:26:32;99569.16;;;15.49;52.16
68137;BME280;54939;50.826;9.030;2022-09-21T02:27:06;99561.28;;;15.48;52.24
68137;BME280;54939;50.826;9.030;2022-09-21T02:27:44;99567.31;;;15.50;52.50
68137;BME280;54939;50.826;9.030;2022-09-21T02:28:19;99561.78;;;15.51;52.49
68137;BME280;54939;50.826;9.030;2022-09-21T02:29:00;99565.66;;;15.49;52.32
68137;BME280;54939;50.826;9.030;2022-09-21T02:30:25;99567.50;;;15.48;52.39
68137;BME280;54939;50.826;9.030;2022-09-21T02:31:00;99564.97;;;15.47;52.37
68137;BME280;54939;50.826;9.030;2022-09-21T02:31:39;99567.66;;;15.47;52.33
68137;BME280;54939;50.826;9.030;2022-09-21T02:32:15;99560.44;;;15.47;52.40
68137;BME280;54939;50.826;9.030;2022-09-21T02:33:23;99572.03;;;15.48;52.52
68137;BME280;54939;50.826;9.030;2022-09-21T02:34:48;99561.28;;;15.48;52.54
68137;BME280;54939;50.826;9.030;2022-09-21T02:35:57;99560.59;;;15.46;52.70
68137;BME280;54939;50.826;9.030;2022-09-21T02:36:36;99562.44;;;15.45;52.57
68137;BME280;54939;50.826;9.030;2022-09-21T02:37:48;99562.28;;;15.47;52.53
68137;BME280;54939;50.826;9.030;2022-09-21T02:38:33;99563.28;;;15.46;52.63
68137;BME280;54939;50.826;9.030;2022-09-21T02:39:06;99556.91;;;15.47;52.50
68137;BME280;54939;50.826;9.030;2022-09-21T02:39:45;99560.59;;;15.46;52.59
68137;BME280;54939;50.826;9.030;2022-09-21T02:41:00;99563.97;;;15.48;52.50
68137;BME280;54939;50.826;9.030;2022-09-21T02:42:11;99567.66;;;15.47;52.64
68137;BME280;54939;50.826;9.030;2022-09-21T02:42:43;99557.06;;;15.45;52.58
68137;BME280;54939;50.826;9.030;2022-09-21T02:43:35;99561.44;;;15.46;52.59
68137;BME280;54939;50.826;9.030;2022-09-21T02:44:45;99561.59;;;15.45;52.40
68137;BME280;54939;50.826;9.030;2022-09-21T02:45:20;99563.28;;;15.46;52.36
68137;BME280;54939;50.826;9.030;2022-09-21T02:46:02;99556.22;;;15.45;52.25
68137;BME280;54939;50.826;9.030;2022-09-21T02:46:41;99555.38;;;15.44;52.19
68137;BME280;54939;50.826;9.030;2022-09-21T02:47:17;99557.91;;;15.46;52.46
68137;BME280;54939;50.826;9.030;2022-09-21T02:47:59;99558.91;;;15.45;52.51
68137;BME280;54939;50.826;9.030;2022-09-21T02:48:34;99564.28;;;15.45;52.48
68137;BME280;54939;50.826;9.030;2022-09-21T02:49:08;99558.06;;;15.44;52.51
68137;BME280;54939;50.826;9.030;2022-09-21T02:49:41;99555.53;;;15.43;52.66
68137;BME280;54939;50.826;9.030;2022-09-21T02:50:14;99565.28;;;15.44;52.54
68137;BME280;54939;50.826;9.030;2022-09-21T02:50:52;99555.53;;;15.43;52.70
68137;BME280;54939;50.826;9.030;2022-09-21T02:51:30;99552.84;;;15.43;52.67
68137;BME280;54939;50.826;9.030;2022-09-21T02:52:04;99557.38;;;15.42;52.55
68137;BME280;54939;50.826;9.030;2022-09-21T02:52:36;99556.56;;;15.42;52.70
68137;BME280;54939;50.826;9.030;2022-09-21T02:53:09;99564.63;;;15.42;52.64
68137;BME280;54939;50.826;9.030;2022-09-21T02:53:40;99559.25;;;15.42;52.71
68137;BME280;54939;50.826;9.030;2022-09-21T02:54:11;99554.69;;;15.42;52.67
68137;BME280;54939;50.826;9.030;2022-09-21T02:54:45;99559.25;;;15.42;52.52
68137;BME280;54939;50.826;9.030;2022-09-21T02:55:17;99557.22;;;15.44;52.63
68137;BME280;54939;50.826;9.030;2022-09-21T02:55:47;99562.59;;;15.44;52.67
68137;BME280;54939;50.826;9.030;2022-09-21T02:56:20;99560.75;;;15.44;52.41
68137;BME280;54939;50.826;9.030;2022-09-21T02:56:51;99566.28;;;15.43;52.52
68137;BME280;54939;50.826;9.030;2022-09-21T02:57:22;99558.41;;;15.41;52.73
68137;BME280;54939;50.826;9.030;2022-09-21T02:57:53;99560.91;;;15.43;52.57
68137;BME280;54939;50.826;9.030;2022-09-21T02:58:24;99562.75;;;15.42;52.67
68137;BME280;54939;50.826;9.030;2022-09-21T02:58:56;99562.09;;;15.40;52.69
68137;BME280;54939;50.826;9.030;2022-09-21T02:59:28;99558.41;;;15.41;52.67
68137;BME280;54939;50.826;9.030;2022-09-21T02:59:58;99569.16;;;15.41;52.65
68137;BME280;54939;50.826;9.030;2022-09-21T03:00:28;99559.41;;;15.40;52.52
68137;BME280;54939;50.826;9.030;2022-09-21T03:00:59;99570.16;;;15.40;52.62
68137;BME280;54939;50.826;9.030;2022-09-21T03:01:29;99569.31;;;15.40;52.60
68137;BME280;54939;50.826;9.030;2022-09-21T03:02:00;99563.09;;;15.39;52.57
68137;BME280;54939;50.826;9.030;2022-09-21T03:02:41;99563.09;;;15.39;52.80
68137;BME280;54939;50.826;9.030;2022-09-21T03:03:15;99570.31;;;15.38;52.57
68137;BME280;54939;50.826;9.030;2022-09-21T03:03:46;99566.63;;;15.40;52.69
68137;BME280;54939;50.826;9.030;2022-09-21T03:04:16;99565.78;;;15.39;52.57
68137;BME280;54939;50.826;9.030;2022-09-21T03:04:47;99563.09;;;15.39;52.48
68137;BME280;54939;50.826;9.030;2022-09-21T03:05:17;99561.25;;;15.40;52.44
68137;BME280;54939;50.826;9.030;2022-09-21T03:05:48;99558.56;;;15.40;52.49
68137;BME280;54939;50.826;9.030;2022-09-21T03:06:19;99553.19;;;15.40;52.59
68137;BME280;54939;50.826;9.030;2022-09-21T03:06:50;99557.72;;;15.39;52.42
68137;BME280;54939;50.826;9.030;2022-09-21T03:07:20;99563.09;;;15.39;52.79
68137;BME280;54939;50.826;9.030;2022-09-21T03:07:50;99563.94;;;15.40;52.64
68137;BME280;54939;50.826;9.030;2022-09-21T03:08:21;99563.78;;;15.41;52.62
68137;BME280;54939;50.826;9.030;2022-09-21T03:08:51;99563.78;;;15.41;52.51
68137;BME280;54939;50.826;9.030;2022-09-21T03:09:21;99568.13;;;15.42;52.50
68137;BME280;54939;50.826;9.030;2022-09-21T03:09:53;99570.16;;;15.40;52.44
68137;BME280;54939;50.826;9.030;2022-09-21T03:10:23;99559.41;;;15.40;52.31
68137;BME280;54939;50.826;9.030;2022-09-21T03:10:54;99557.72;;;15.39;52.57
68137;BME280;54939;50.826;9.030;2022-09-21T03:11:26;99563.94;;;15.40;52.66
68137;BME280;54939;50.826;9.030;2022-09-21T03:11:56;99561.41;;;15.38;52.74
68137;BME280;54939;50.826;9.030;2022-09-21T03:12:27;99562.25;;;15.38;52.58
68137;BME280;54939;50.826;9.030;2022-09-21T03:12:57;99564.94;;;15.38;52.49
68137;BME280;54939;50.826;9.030;2022-09-21T03:13:28;99569.31;;;15.40;52.72
68137;BME280;54939;50.826;9.030;2022-09-21T03:13:59;99564.78;;;15.40;52.58
68137;BME280;54939;50.826;9.030;2022-09-21T03:14:29;99565.63;;;15.41;52.52
68137;BME280;54939;50.826;9.030;2022-09-21T03:15:02;99572.00;;;15.40;52.73
68137;BME280;54939;50.826;9.030;2022-09-21T03:15:32;99562.25;;;15.38;52.32
68137;BME280;54939;50.826;9.030;2022-09-21T03:16:03;99566.47;;;15.41;52.36
68137;BME280;54939;50.826;9.030;2022-09-21T03:16:34;99567.47;;;15.40;52.62
68137;BME280;54939;50.826;9.030;2022-09-21T03:17:04;99566.78;;;15.38;52.32
68137;BME280;54939;50.826;9.030;2022-09-21T03:17:34;99566.63;;;15.40;52.34
68137;BME280;54939;50.826;9.030;2022-09-21T03:18:05;99571.16;;;15.39;52.42
68137;BME280;54939;50.826;9.030;2022-09-21T03:18:38;99566.78;;;15.38;52.61
68137;BME280;54939;50.826;9.030;2022-09-21T03:19:09;99569.47;;;15.38;52.26
68137;BME280;54939;50.826;9.030;2022-09-21T03:19:40;99570.31;;;15.38;52.33
68137;BME280;54939;50.826;9.030;2022-09-21T03:20:11;99570.47;;;15.37;52.59
68137;BME280;54939;50.826;9.030;2022-09-21T03:20:43;99570.31;;;15.38;52.41
68137;BME280;54939;50.826;9.030;2022-09-21T03:21:16;99574.00;;;15.37;52.57
68137;BME280;54939;50.826;9.030;2022-09-21T03:21:47;99570.31;;;15.38;52.47